sensor_id;sensor_type;location;lat;lon;timestamp;temperature;humidity
41318;DHT22;27067;51.554;7.026;2023-05-16T00:00:16;20.00;98.90
41318;DHT22;27067;51.554;7.026;2023-05-16T00:02:42;20.00;99.00
41318;DHT22;27067;51.554;7.026;2023-05-16T00:05:08;20.00;99.00
41318;DHT22;27067;51.554;7.026;2023-05-16T00:07:35;20.00;99.00
41318;DHT22;27067;51.554;7.026;2023-05-16T00:10:01;20.00;99.00
41318;DHT22;27067;51.554;7.026;2023-05-16T00:12:27;20.00;98.90
41318;DHT22;27067;51.554;7.026;2023-05-16T00:14:53;20.00;98.90
41318;DHT22;27067;51.554;7.026;2023-05-16T00:17:20;20.00;98.90
41318;DHT22;27067;51.554;7.026;2023-05-16T00:19:46;20.00;98.90
41318;DHT22;27067;51.554;7.026;2023-05-16T00:22:14;20.00;98.90
41318;DHT22;27067;51.554;7.026;2023-05-16T00:24:40;20.00;98.90
41318;DHT22;27067;51.554;7.026;2023-05-16T00:27:06;20.00;98.90
41318;DHT22;27067;51.554;7.026;2023-05-16T00:29:35;20.00;98.80
41318;DHT22;27067;51.554;7.026;2023-05-16T00:32:00;20.00;98.80
41318;DHT22;27067;51.554;7.026;2023-05-16T00:34:26;20.00;98.80
41318;DHT22;27067;51.554;7.026;2023-05-16T00:36:52;20.00;98.80
41318;DHT22;27067;51.554;7.026;2023-05-16T00:39:18;20.00;98.80
41318;DHT22;27067;51.554;7.026;2023-05-16T00:41:44;20.00;98.80
41318;DHT22;27067;51.554;7.026;2023-05-16T00:44:10;19.90;98.80
41318;DHT22;27067;51.554;7.026;2023-05-16T00:46:36;20.00;98.80
41318;DHT22;27067;51.554;7.026;2023-05-16T00:49:02;20.00;98.80
41318;DHT22;27067;51.554;7.026;2023-05-16T00:51:28;20.00;98.80
41318;DHT22;27067;51.554;7.026;2023-05-16T00:53:54;20.00;98.80
41318;DHT22;27067;51.554;7.026;2023-05-16T00:56:21;20.00;98.80
41318;DHT22;27067;51.554;7.026;2023-05-16T00:58:47;20.00;98.80
41318;DHT22;27067;51.554;7.026;2023-05-16T01:01:14;19.90;98.80
41318;DHT22;27067;51.554;7.026;2023-05-16T01:03:41;19.90;98.90
41318;DHT22;27067;51.554;7.026;2023-05-16T01:06:10;19.90;98.90
41318;DHT22;27067;51.554;7.026;2023-05-16T01:08:36;19.90;98.90
41318;DHT22;27067;51.554;7.026;2023-05-16T01:11:07;19.90;98.90
41318;DHT22;27067;51.554;7.026;2023-05-16T01:13:53;19.90;98.90
41318;DHT22;27067;51.554;7.026;2023-05-16T01:25:23;19.90;98.90
41318;DHT22;27067;51.554;7.026;2023-05-16T01:27:51;19.90;98.80
41318;DHT22;27067;51.554;7.026;2023-05-16T01:30:18;20.00;98.80
41318;DHT22;27067;51.554;7.026;2023-05-16T01:32:44;19.90;98.80
41318;DHT22;27067;51.554;7.026;2023-05-16T01:35:12;19.90;98.80
41318;DHT22;27067;51.554;7.026;2023-05-16T01:38:14;19.90;98.80
41318;DHT22;27067;51.554;7.026;2023-05-16T01:40:51;19.90;98.70
41318;DHT22;27067;51.554;7.026;2023-05-16T01:43:28;19.90;98.70
41318;DHT22;27067;51.554;7.026;2023-05-16T01:46:01;19.90;98.70
41318;DHT22;27067;51.554;7.026;2023-05-16T01:48:34;19.90;98.70
41318;DHT22;27067;51.554;7.026;2023-05-16T01:51:01;19.90;98.80
41318;DHT22;27067;51.554;7.026;2023-05-16T01:53:32;19.90;98.70
41318;DHT22;27067;51.554;7.026;2023-05-16T01:56:01;19.90;98.80
41318;DHT22;27067;51.554;7.026;2023-05-16T01:58:32;19.90;98.70
41318;DHT22;27067;51.554;7.026;2023-05-16T02:01:02;19.90;98.70
41318;DHT22;27067;51.554;7.026;2023-05-16T02:03:29;19.90;98.60
41318;DHT22;27067;51.554;7.026;2023-05-16T02:05:55;19.90;98.70
41318;DHT22;27067;51.554;7.026;2023-05-16T02:08:21;19.90;98.80
41318;DHT22;27067;51.554;7.026;2023-05-16T02:10:47;19.90;98.80
41318;DHT22;27067;51.554;7.026;2023-05-16T02:13:13;19.90;98.90
41318;DHT22;27067;51.554;7.026;2023-05-16T02:15:38;19.90;99.00
41318;DHT22;27067;51.554;7.026;2023-05-16T02:18:04;19.90;99.00
41318;DHT22;27067;51.554;7.026;2023-05-16T02:20:30;19.90;99.00
41318;DHT22;27067;51.554;7.026;2023-05-16T02:22:56;19.90;99.00
41318;DHT22;27067;51.554;7.026;2023-05-16T02:25:21;19.90;99.00
41318;DHT22;27067;51.554;7.026;2023-05-16T02:27:47;19.90;99.00
41318;DHT22;27067;51.554;7.026;2023-05-16T02:30:13;19.90;99.00
41318;DHT22;27067;51.554;7.026;2023-05-16T02:32:39;19.90;99.00
41318;DHT22;27067;51.554;7.026;2023-05-16T02:35:05;19.90;99.00
41318;DHT22;27067;51.554;7.026;2023-05-16T02:37:32;19.80;99.00
41318;DHT22;27067;51.554;7.026;2023-05-16T02:39:58;19.90;99.00
41318;DHT22;27067;51.554;7.026;2023-05-16T02:42:25;19.80;98.90
41318;DHT22;27067;51.554;7.026;2023-05-16T02:44:51;19.80;98.90
41318;DHT22;27067;51.554;7.026;2023-05-16T02:47:17;19.80;98.90
41318;DHT22;27067;51.554;7.026;2023-05-16T02:49:43;19.90;98.90
41318;DHT22;27067;51.554;7.026;2023-05-16T02:52:09;19.80;98.90
41318;DHT22;27067;51.554;7.026;2023-05-16T02:54:35;19.80;98.90
41318;DHT22;27067;51.554;7.026;2023-05-16T02:57:00;19.90;98.90
41318;DHT22;27067;51.554;7.026;2023-05-16T02:59:26;19.90;98.90
41318;DHT22;27067;51.554;7.026;2023-05-16T03:01:52;19.80;98.80
41318;DHT22;27067;51.554;7.026;2023-05-16T03:04:17;19.80;98.80
41318;DHT22;27067;51.554;7.026;2023-05-16T03:06:43;19.80;98.80
41318;DHT22;27067;51.554;7.026;2023-05-16T03:09:09;19.80;98.80
41318;DHT22;27067;51.554;7.026;2023-05-16T03:11:35;19.80;98.80
41318;DHT22;27067;51.554;7.026;2023-05-16T03:14:00;19.80;98.80
41318;DHT22;27067;51.554;7.026;2023-05-16T03:16:26;19.80;98.80
41318;DHT22;27067;51.554;7.026;2023-05-16T03:18:53;19.80;98.80
41318;DHT22;27067;51.554;7.026;2023-05-16T03:21:18;19.80;98.80
41318;DHT22;27067;51.554;7.026;2023-05-16T03:23:44;19.80;98.70
41318;DHT22;27067;51.554;7.026;2023-05-16T03:26:10;19.80;98.80
41318;DHT22;27067;51.554;7.026;2023-05-16T03:28:36;19.80;98.70
41318;DHT22;27067;51.554;7.026;2023-05-16T03:31:01;19.80;98.70
41318;DHT22;27067;51.554;7.026;2023-05-16T03:33:27;19.80;98.70
41318;DHT22;27067;51.554;7.026;2023-05-16T03:35:53;19.80;98.70
41318;DHT22;27067;51.554;7.026;2023-05-16T03:38:18;19.80;98.70
41318;DHT22;27067;51.554;7.026;2023-05-16T03:40:44;19.80;98.70
41318;DHT22;27067;51.554;7.026;2023-05-16T03:43:10;19.80;98.70
41318;DHT22;27067;51.554;7.026;2023-05-16T03:45:35;19.70;98.60
41318;DHT22;27067;51.554;7.026;2023-05-16T03:48:01;19.80;98.70
41318;DHT22;27067;51.554;7.026;2023-05-16T03:50:27;19.70;98.60
41318;DHT22;27067;51.554;7.026;2023-05-16T03:52:53;19.80;98.70
41318;DHT22;27067;51.554;7.026;2023-05-16T03:55:19;19.70;98.60
41318;DHT22;27067;51.554;7.026;2023-05-16T03:57:44;19.70;98.60
41318;DHT22;27067;51.554;7.026;2023-05-16T04:00:11;19.70;98.60
41318;DHT22;27067;51.554;7.026;2023-05-16T04:02:40;19.70;98.60
41318;DHT22;27067;51.554;7.026;2023-05-16T04:05:09;19.70;98.70
41318;DHT22;27067;51.554;7.026;2023-05-16T04:07:36;19.70;98.80
41318;DHT22;27067;51.554;7.026;2023-05-16T04:10:02;19.70;98.80
41318;DHT22;27067;51.554;7.026;2023-05-16T04:12:28;19.70;98.80
41318;DHT22;27067;51.554;7.026;2023-05-16T04:14:54;19.70;98.80
41318;DHT22;27067;51.554;7.026;2023-05-16T04:17:20;19.70;98.80
41318;DHT22;27067;51.554;7.026;2023-05-16T04:19:45;19.70;98.80
41318;DHT22;27067;51.554;7.026;2023-05-16T04:22:11;19.70;98.70
41318;DHT22;27067;51.554;7.026;2023-05-16T04:24:37;19.70;98.60
41318;DHT22;27067;51.554;7.026;2023-05-16T04:27:03;19.70;98.60
41318;DHT22;27067;51.554;7.026;2023-05-16T04:29:29;19.70;98.50
41318;DHT22;27067;51.554;7.026;2023-05-16T04:31:55;19.70;98.40
41318;DHT22;27067;51.554;7.026;2023-05-16T04:34:21;19.70;98.30
41318;DHT22;27067;51.554;7.026;2023-05-16T04:36:47;19.70;97.90
41318;DHT22;27067;51.554;7.026;2023-05-16T04:39:13;19.70;97.20
41318;DHT22;27067;51.554;7.026;2023-05-16T04:41:38;19.60;96.90
41318;DHT22;27067;51.554;7.026;2023-05-16T04:44:04;19.60;96.70
41318;DHT22;27067;51.554;7.026;2023-05-16T04:46:30;19.60;96.40
41318;DHT22;27067;51.554;7.026;2023-05-16T04:48:56;19.60;96.20
41318;DHT22;27067;51.554;7.026;2023-05-16T04:51:22;19.60;96.00
41318;DHT22;27067;51.554;7.026;2023-05-16T04:53:48;19.60;95.80
41318;DHT22;27067;51.554;7.026;2023-05-16T04:56:13;19.60;95.70
41318;DHT22;27067;51.554;7.026;2023-05-16T04:58:39;19.60;95.50
41318;DHT22;27067;51.554;7.026;2023-05-16T05:01:04;19.60;95.30
41318;DHT22;27067;51.554;7.026;2023-05-16T05:03:30;19.50;95.20
41318;DHT22;27067;51.554;7.026;2023-05-16T05:05:56;19.60;95.20
41318;DHT22;27067;51.554;7.026;2023-05-16T05:08:22;19.60;95.20
41318;DHT22;27067;51.554;7.026;2023-05-16T05:10:47;19.60;95.30
41318;DHT22;27067;51.554;7.026;2023-05-16T05:13:13;19.60;95.20
41318;DHT22;27067;51.554;7.026;2023-05-16T05:15:38;19.60;95.50
41318;DHT22;27067;51.554;7.026;2023-05-16T05:18:05;19.60;95.30
41318;DHT22;27067;51.554;7.026;2023-05-16T05:20:30;19.60;95.30
41318;DHT22;27067;51.554;7.026;2023-05-16T05:22:56;19.60;95.20
41318;DHT22;27067;51.554;7.026;2023-05-16T05:25:21;19.60;95.10
41318;DHT22;27067;51.554;7.026;2023-05-16T05:27:47;19.60;95.10
41318;DHT22;27067;51.554;7.026;2023-05-16T05:30:13;19.60;95.50
41318;DHT22;27067;51.554;7.026;2023-05-16T05:32:39;19.60;95.70
41318;DHT22;27067;51.554;7.026;2023-05-16T05:35:05;19.60;95.70
41318;DHT22;27067;51.554;7.026;2023-05-16T05:37:30;19.60;95.60
41318;DHT22;27067;51.554;7.026;2023-05-16T05:39:56;19.60;95.60
41318;DHT22;27067;51.554;7.026;2023-05-16T05:42:22;19.60;95.60
41318;DHT22;27067;51.554;7.026;2023-05-16T05:44:48;19.60;95.50
41318;DHT22;27067;51.554;7.026;2023-05-16T05:47:13;19.60;95.50
41318;DHT22;27067;51.554;7.026;2023-05-16T05:49:39;19.60;95.50
41318;DHT22;27067;51.554;7.026;2023-05-16T05:52:05;19.60;95.50
41318;DHT22;27067;51.554;7.026;2023-05-16T05:54:32;19.60;95.50
41318;DHT22;27067;51.554;7.026;2023-05-16T05:56:58;19.60;95.50
41318;DHT22;27067;51.554;7.026;2023-05-16T05:59:23;19.60;95.30
41318;DHT22;27067;51.554;7.026;2023-05-16T06:01:49;19.60;95.40
41318;DHT22;27067;51.554;7.026;2023-05-16T06:04:20;19.60;95.40
41318;DHT22;27067;51.554;7.026;2023-05-16T06:06:46;19.60;95.40
41318;DHT22;27067;51.554;7.026;2023-05-16T06:09:12;19.60;95.40
41318;DHT22;27067;51.554;7.026;2023-05-16T06:11:39;19.50;95.40
41318;DHT22;27067;51.554;7.026;2023-05-16T06:14:05;19.50;95.30
41318;DHT22;27067;51.554;7.026;2023-05-16T06:16:31;19.50;95.00
41318;DHT22;27067;51.554;7.026;2023-05-16T06:18:58;19.50;94.60
41318;DHT22;27067;51.554;7.026;2023-05-16T06:21:24;19.50;96.00
41318;DHT22;27067;51.554;7.026;2023-05-16T06:23:50;19.60;97.20
41318;DHT22;27067;51.554;7.026;2023-05-16T06:26:15;19.60;97.20
41318;DHT22;27067;51.554;7.026;2023-05-16T06:28:41;19.60;97.10
41318;DHT22;27067;51.554;7.026;2023-05-16T06:31:06;19.50;97.00
41318;DHT22;27067;51.554;7.026;2023-05-16T06:33:32;19.60;96.80
41318;DHT22;27067;51.554;7.026;2023-05-16T06:35:58;19.50;96.70
41318;DHT22;27067;51.554;7.026;2023-05-16T06:38:24;19.50;96.60
41318;DHT22;27067;51.554;7.026;2023-05-16T06:40:50;19.50;96.50
41318;DHT22;27067;51.554;7.026;2023-05-16T06:43:16;19.50;96.40
41318;DHT22;27067;51.554;7.026;2023-05-16T06:45:43;19.50;96.30
41318;DHT22;27067;51.554;7.026;2023-05-16T06:48:09;19.50;96.30
41318;DHT22;27067;51.554;7.026;2023-05-16T06:50:35;19.50;96.30
41318;DHT22;27067;51.554;7.026;2023-05-16T06:53:01;19.50;96.40
41318;DHT22;27067;51.554;7.026;2023-05-16T06:55:29;19.50;96.60
41318;DHT22;27067;51.554;7.026;2023-05-16T06:57:55;19.50;96.80
41318;DHT22;27067;51.554;7.026;2023-05-16T07:00:20;19.50;97.00
41318;DHT22;27067;51.554;7.026;2023-05-16T07:02:46;19.50;96.80
41318;DHT22;27067;51.554;7.026;2023-05-16T07:05:12;19.50;96.50
41318;DHT22;27067;51.554;7.026;2023-05-16T07:07:37;19.50;96.30
41318;DHT22;27067;51.554;7.026;2023-05-16T07:10:03;19.50;96.20
41318;DHT22;27067;51.554;7.026;2023-05-16T07:12:29;19.50;96.00
41318;DHT22;27067;51.554;7.026;2023-05-16T07:14:55;19.50;95.90
41318;DHT22;27067;51.554;7.026;2023-05-16T07:17:21;19.50;95.80
41318;DHT22;27067;51.554;7.026;2023-05-16T07:19:46;19.50;95.70
41318;DHT22;27067;51.554;7.026;2023-05-16T07:22:12;19.50;95.70
41318;DHT22;27067;51.554;7.026;2023-05-16T07:24:38;19.50;95.60
41318;DHT22;27067;51.554;7.026;2023-05-16T07:27:03;19.50;95.60
41318;DHT22;27067;51.554;7.026;2023-05-16T07:29:29;19.50;95.70
41318;DHT22;27067;51.554;7.026;2023-05-16T07:31:55;19.50;95.70
41318;DHT22;27067;51.554;7.026;2023-05-16T07:34:21;19.40;96.00
41318;DHT22;27067;51.554;7.026;2023-05-16T07:36:46;19.50;98.20
41318;DHT22;27067;51.554;7.026;2023-05-16T07:39:12;19.70;97.90
41318;DHT22;27067;51.554;7.026;2023-05-16T07:41:38;19.60;97.60
41318;DHT22;27067;51.554;7.026;2023-05-16T07:44:04;19.60;97.60
41318;DHT22;27067;51.554;7.026;2023-05-16T07:46:30;19.60;98.70
41318;DHT22;27067;51.554;7.026;2023-05-16T07:48:55;19.60;99.30
41318;DHT22;27067;51.554;7.026;2023-05-16T07:51:21;19.60;98.70
41318;DHT22;27067;51.554;7.026;2023-05-16T07:53:47;19.70;98.40
41318;DHT22;27067;51.554;7.026;2023-05-16T07:56:12;19.70;98.20
41318;DHT22;27067;51.554;7.026;2023-05-16T07:58:38;19.60;98.00
41318;DHT22;27067;51.554;7.026;2023-05-16T08:01:04;19.70;97.80
41318;DHT22;27067;51.554;7.026;2023-05-16T08:03:30;19.70;97.60
41318;DHT22;27067;51.554;7.026;2023-05-16T08:05:55;19.60;99.10
41318;DHT22;27067;51.554;7.026;2023-05-16T08:08:21;19.70;98.40
41318;DHT22;27067;51.554;7.026;2023-05-16T08:10:47;19.70;97.90
41318;DHT22;27067;51.554;7.026;2023-05-16T08:13:12;19.70;97.70
41318;DHT22;27067;51.554;7.026;2023-05-16T08:15:38;19.70;97.60
41318;DHT22;27067;51.554;7.026;2023-05-16T08:18:04;19.70;97.50
41318;DHT22;27067;51.554;7.026;2023-05-16T08:20:36;19.70;97.40
41318;DHT22;27067;51.554;7.026;2023-05-16T08:23:02;19.70;97.30
41318;DHT22;27067;51.554;7.026;2023-05-16T08:25:28;19.70;97.20
41318;DHT22;27067;51.554;7.026;2023-05-16T08:27:53;19.70;97.00
41318;DHT22;27067;51.554;7.026;2023-05-16T08:30:19;19.70;97.00
41318;DHT22;27067;51.554;7.026;2023-05-16T08:32:45;19.70;96.90
41318;DHT22;27067;51.554;7.026;2023-05-16T08:35:10;19.70;96.80
41318;DHT22;27067;51.554;7.026;2023-05-16T08:37:37;19.70;96.80
41318;DHT22;27067;51.554;7.026;2023-05-16T08:40:05;19.70;97.00
41318;DHT22;27067;51.554;7.026;2023-05-16T08:42:33;19.70;96.90
41318;DHT22;27067;51.554;7.026;2023-05-16T08:44:58;19.70;96.80
41318;DHT22;27067;51.554;7.026;2023-05-16T08:47:26;19.70;96.70
41318;DHT22;27067;51.554;7.026;2023-05-16T08:49:56;19.70;96.80
41318;DHT22;27067;51.554;7.026;2023-05-16T08:52:25;19.70;96.70
41318;DHT22;27067;51.554;7.026;2023-05-16T08:54:54;19.70;96.70
41318;DHT22;27067;51.554;7.026;2023-05-16T08:57:21;19.70;96.70
41318;DHT22;27067;51.554;7.026;2023-05-16T08:59:47;19.70;96.70
41318;DHT22;27067;51.554;7.026;2023-05-16T09:02:12;19.70;96.50
41318;DHT22;27067;51.554;7.026;2023-05-16T09:04:39;19.70;96.60
41318;DHT22;27067;51.554;7.026;2023-05-16T09:07:05;19.80;96.50
41318;DHT22;27067;51.554;7.026;2023-05-16T09:09:31;19.70;96.50
41318;DHT22;27067;51.554;7.026;2023-05-16T09:11:57;19.80;99.30
41318;DHT22;27067;51.554;7.026;2023-05-16T09:14:22;20.00;99.00
41318;DHT22;27067;51.554;7.026;2023-05-16T09:17:07;19.90;98.30
41318;DHT22;27067;51.554;7.026;2023-05-16T09:19:41;19.90;97.90
41318;DHT22;27067;51.554;7.026;2023-05-16T09:22:14;19.90;97.70
41318;DHT22;27067;51.554;7.026;2023-05-16T09:24:41;19.90;97.60
41318;DHT22;27067;51.554;7.026;2023-05-16T09:27:11;19.90;97.80
41318;DHT22;27067;51.554;7.026;2023-05-16T09:29:41;20.00;98.50
41318;DHT22;27067;51.554;7.026;2023-05-16T09:32:14;20.00;98.00
41318;DHT22;27067;51.554;7.026;2023-05-16T09:34:44;20.00;97.60
41318;DHT22;27067;51.554;7.026;2023-05-16T09:37:12;20.00;97.50
41318;DHT22;27067;51.554;7.026;2023-05-16T09:39:46;20.00;97.30
41318;DHT22;27067;51.554;7.026;2023-05-16T09:42:13;20.00;97.10
41318;DHT22;27067;51.554;7.026;2023-05-16T09:44:40;20.00;97.00
41318;DHT22;27067;51.554;7.026;2023-05-16T09:47:06;20.00;96.80
41318;DHT22;27067;51.554;7.026;2023-05-16T09:49:32;19.90;96.70
41318;DHT22;27067;51.554;7.026;2023-05-16T09:52:01;19.90;96.70
41318;DHT22;27067;51.554;7.026;2023-05-16T09:54:32;19.90;96.70
41318;DHT22;27067;51.554;7.026;2023-05-16T09:56:58;19.90;96.70
41318;DHT22;27067;51.554;7.026;2023-05-16T09:59:27;19.90;96.70
41318;DHT22;27067;51.554;7.026;2023-05-16T10:01:53;19.90;96.80
41318;DHT22;27067;51.554;7.026;2023-05-16T10:04:19;19.90;96.80
41318;DHT22;27067;51.554;7.026;2023-05-16T10:06:45;19.90;96.80
41318;DHT22;27067;51.554;7.026;2023-05-16T10:09:12;19.80;96.70
41318;DHT22;27067;51.554;7.026;2023-05-16T10:11:41;19.90;96.70
41318;DHT22;27067;51.554;7.026;2023-05-16T10:14:10;19.90;96.60
41318;DHT22;27067;51.554;7.026;2023-05-16T10:16:36;19.80;96.60
41318;DHT22;27067;51.554;7.026;2023-05-16T10:19:02;19.90;96.60
41318;DHT22;27067;51.554;7.026;2023-05-16T10:21:28;19.90;96.60
41318;DHT22;27067;51.554;7.026;2023-05-16T10:23:58;19.90;96.60
41318;DHT22;27067;51.554;7.026;2023-05-16T10:26:27;19.90;96.60
41318;DHT22;27067;51.554;7.026;2023-05-16T10:28:54;19.90;96.60
41318;DHT22;27067;51.554;7.026;2023-05-16T10:31:19;19.90;96.60
41318;DHT22;27067;51.554;7.026;2023-05-16T10:33:46;19.90;96.60
41318;DHT22;27067;51.554;7.026;2023-05-16T10:36:12;19.90;96.60
41318;DHT22;27067;51.554;7.026;2023-05-16T10:38:38;19.80;96.50
41318;DHT22;27067;51.554;7.026;2023-05-16T10:41:06;19.90;96.60
41318;DHT22;27067;51.554;7.026;2023-05-16T10:43:32;19.80;96.50
41318;DHT22;27067;51.554;7.026;2023-05-16T10:46:05;19.90;96.50
41318;DHT22;27067;51.554;7.026;2023-05-16T10:48:34;19.90;96.50
41318;DHT22;27067;51.554;7.026;2023-05-16T10:51:00;19.90;96.40
41318;DHT22;27067;51.554;7.026;2023-05-16T10:53:34;19.90;96.40
41318;DHT22;27067;51.554;7.026;2023-05-16T11:01:27;19.90;96.20
41318;DHT22;27067;51.554;7.026;2023-05-16T11:06:26;19.90;96.20
41318;DHT22;27067;51.554;7.026;2023-05-16T11:12:01;19.90;96.20
41318;DHT22;27067;51.554;7.026;2023-05-16T11:19:29;19.90;96.10
41318;DHT22;27067;51.554;7.026;2023-05-16T11:24:53;19.90;96.20
41318;DHT22;27067;51.554;7.026;2023-05-16T11:27:28;19.90;96.00
41318;DHT22;27067;51.554;7.026;2023-05-16T11:32:36;19.90;96.00
41318;DHT22;27067;51.554;7.026;2023-05-16T11:35:05;19.90;96.00
41318;DHT22;27067;51.554;7.026;2023-05-16T11:37:32;19.90;96.00
41318;DHT22;27067;51.554;7.026;2023-05-16T11:39:59;19.90;96.00
41318;DHT22;27067;51.554;7.026;2023-05-16T11:42:35;19.90;96.00
41318;DHT22;27067;51.554;7.026;2023-05-16T11:47:30;19.90;95.90
41318;DHT22;27067;51.554;7.026;2023-05-16T11:49:59;19.90;95.90
41318;DHT22;27067;51.554;7.026;2023-05-16T11:52:25;19.90;95.90
41318;DHT22;27067;51.554;7.026;2023-05-16T11:54:52;19.90;95.90
41318;DHT22;27067;51.554;7.026;2023-05-16T11:57:20;19.90;95.80
41318;DHT22;27067;51.554;7.026;2023-05-16T11:59:45;19.90;95.80
41318;DHT22;27067;51.554;7.026;2023-05-16T12:02:11;19.90;95.80
41318;DHT22;27067;51.554;7.026;2023-05-16T12:04:37;19.90;95.70
41318;DHT22;27067;51.554;7.026;2023-05-16T12:07:03;19.90;95.70
41318;DHT22;27067;51.554;7.026;2023-05-16T12:09:30;19.90;95.70
41318;DHT22;27067;51.554;7.026;2023-05-16T12:11:55;20.00;95.70
41318;DHT22;27067;51.554;7.026;2023-05-16T12:14:21;20.00;95.60
41318;DHT22;27067;51.554;7.026;2023-05-16T12:16:47;20.00;95.60
41318;DHT22;27067;51.554;7.026;2023-05-16T12:19:14;20.00;95.50
41318;DHT22;27067;51.554;7.026;2023-05-16T12:21:40;20.00;95.50
41318;DHT22;27067;51.554;7.026;2023-05-16T12:24:09;20.00;95.50
41318;DHT22;27067;51.554;7.026;2023-05-16T12:26:39;20.00;95.50
41318;DHT22;27067;51.554;7.026;2023-05-16T12:29:04;20.00;95.40
41318;DHT22;27067;51.554;7.026;2023-05-16T12:31:40;20.00;95.40
41318;DHT22;27067;51.554;7.026;2023-05-16T12:34:17;20.00;95.40
41318;DHT22;27067;51.554;7.026;2023-05-16T12:36:43;20.00;95.40
41318;DHT22;27067;51.554;7.026;2023-05-16T12:39:11;20.00;95.30
41318;DHT22;27067;51.554;7.026;2023-05-16T12:41:41;20.10;95.90
41318;DHT22;27067;51.554;7.026;2023-05-16T12:44:15;20.10;99.90
41318;DHT22;27067;51.554;7.026;2023-05-16T12:47:01;20.20;99.90
41318;DHT22;27067;51.554;7.026;2023-05-16T12:49:27;20.20;99.30
41318;DHT22;27067;51.554;7.026;2023-05-16T12:51:54;20.20;99.20
41318;DHT22;27067;51.554;7.026;2023-05-16T12:54:21;20.20;98.70
41318;DHT22;27067;51.554;7.026;2023-05-16T12:56:47;20.20;98.20
41318;DHT22;27067;51.554;7.026;2023-05-16T12:59:13;20.20;98.50
41318;DHT22;27067;51.554;7.026;2023-05-16T13:01:39;20.20;98.00
41318;DHT22;27067;51.554;7.026;2023-05-16T13:04:06;20.20;97.70
41318;DHT22;27067;51.554;7.026;2023-05-16T13:06:33;20.20;97.50
41318;DHT22;27067;51.554;7.026;2023-05-16T13:08:58;20.10;97.40
41318;DHT22;27067;51.554;7.026;2023-05-16T13:11:24;20.10;97.20
41318;DHT22;27067;51.554;7.026;2023-05-16T13:13:51;20.10;97.10
41318;DHT22;27067;51.554;7.026;2023-05-16T13:16:17;20.10;97.10
41318;DHT22;27067;51.554;7.026;2023-05-16T13:18:42;20.10;97.00
41318;DHT22;27067;51.554;7.026;2023-05-16T13:21:08;20.10;97.00
41318;DHT22;27067;51.554;7.026;2023-05-16T13:23:34;19.90;97.00
41318;DHT22;27067;51.554;7.026;2023-05-16T13:25:59;20.10;97.00
41318;DHT22;27067;51.554;7.026;2023-05-16T13:28:25;20.00;97.00
41318;DHT22;27067;51.554;7.026;2023-05-16T13:30:50;20.10;97.00
41318;DHT22;27067;51.554;7.026;2023-05-16T13:33:16;20.00;96.90
41318;DHT22;27067;51.554;7.026;2023-05-16T13:35:43;20.00;96.90
41318;DHT22;27067;51.554;7.026;2023-05-16T13:38:08;19.90;96.90
41318;DHT22;27067;51.554;7.026;2023-05-16T13:40:34;19.90;96.80
41318;DHT22;27067;51.554;7.026;2023-05-16T13:43:00;19.90;96.80
41318;DHT22;27067;51.554;7.026;2023-05-16T13:45:26;19.90;96.70
41318;DHT22;27067;51.554;7.026;2023-05-16T13:47:52;19.90;96.80
41318;DHT22;27067;51.554;7.026;2023-05-16T13:50:17;19.90;96.60
41318;DHT22;27067;51.554;7.026;2023-05-16T13:52:43;19.90;96.50
41318;DHT22;27067;51.554;7.026;2023-05-16T13:55:09;19.80;96.40
41318;DHT22;27067;51.554;7.026;2023-05-16T13:57:35;19.80;96.40
41318;DHT22;27067;51.554;7.026;2023-05-16T14:00:01;19.80;96.30
41318;DHT22;27067;51.554;7.026;2023-05-16T14:02:30;19.80;96.30
41318;DHT22;27067;51.554;7.026;2023-05-16T14:04:56;19.80;96.20
41318;DHT22;27067;51.554;7.026;2023-05-16T14:07:21;19.80;96.10
41318;DHT22;27067;51.554;7.026;2023-05-16T14:09:47;19.80;96.10
41318;DHT22;27067;51.554;7.026;2023-05-16T14:12:13;19.80;96.00
41318;DHT22;27067;51.554;7.026;2023-05-16T14:14:38;19.80;95.90
41318;DHT22;27067;51.554;7.026;2023-05-16T14:17:04;19.80;95.90
41318;DHT22;27067;51.554;7.026;2023-05-16T14:19:31;19.70;95.80
41318;DHT22;27067;51.554;7.026;2023-05-16T14:21:58;19.70;95.80
41318;DHT22;27067;51.554;7.026;2023-05-16T14:24:24;19.70;95.80
41318;DHT22;27067;51.554;7.026;2023-05-16T14:26:49;19.70;95.70
41318;DHT22;27067;51.554;7.026;2023-05-16T14:29:19;19.70;95.60
41318;DHT22;27067;51.554;7.026;2023-05-16T14:31:45;19.70;95.60
41318;DHT22;27067;51.554;7.026;2023-05-16T14:34:11;19.70;95.50
41318;DHT22;27067;51.554;7.026;2023-05-16T14:36:37;19.70;95.80
41318;DHT22;27067;51.554;7.026;2023-05-16T14:39:02;19.70;95.50
41318;DHT22;27067;51.554;7.026;2023-05-16T14:41:28;19.70;95.40
41318;DHT22;27067;51.554;7.026;2023-05-16T14:43:54;19.60;95.40
41318;DHT22;27067;51.554;7.026;2023-05-16T14:46:20;19.60;95.40
41318;DHT22;27067;51.554;7.026;2023-05-16T14:48:46;19.60;95.30
41318;DHT22;27067;51.554;7.026;2023-05-16T14:51:11;19.60;95.20
41318;DHT22;27067;51.554;7.026;2023-05-16T14:53:37;19.60;95.20
41318;DHT22;27067;51.554;7.026;2023-05-16T14:56:03;19.60;95.10
41318;DHT22;27067;51.554;7.026;2023-05-16T14:58:29;19.60;95.00
41318;DHT22;27067;51.554;7.026;2023-05-16T15:00:55;19.60;95.00
41318;DHT22;27067;51.554;7.026;2023-05-16T15:03:21;19.60;94.90
41318;DHT22;27067;51.554;7.026;2023-05-16T15:05:46;19.60;94.80
41318;DHT22;27067;51.554;7.026;2023-05-16T15:08:12;19.60;94.80
41318;DHT22;27067;51.554;7.026;2023-05-16T15:10:38;19.60;94.80
41318;DHT22;27067;51.554;7.026;2023-05-16T15:13:03;19.60;94.70
41318;DHT22;27067;51.554;7.026;2023-05-16T15:15:29;19.60;94.70
41318;DHT22;27067;51.554;7.026;2023-05-16T15:17:55;19.50;94.60
41318;DHT22;27067;51.554;7.026;2023-05-16T15:20:20;19.60;94.60
41318;DHT22;27067;51.554;7.026;2023-05-16T15:22:46;19.50;94.50
41318;DHT22;27067;51.554;7.026;2023-05-16T15:25:13;19.60;94.50
41318;DHT22;27067;51.554;7.026;2023-05-16T15:27:39;19.50;94.40
41318;DHT22;27067;51.554;7.026;2023-05-16T15:30:05;19.50;94.40
41318;DHT22;27067;51.554;7.026;2023-05-16T15:32:30;19.50;94.30
41318;DHT22;27067;51.554;7.026;2023-05-16T15:34:56;19.50;94.30
41318;DHT22;27067;51.554;7.026;2023-05-16T15:37:22;19.50;94.30
41318;DHT22;27067;51.554;7.026;2023-05-16T15:39:47;19.50;94.30
41318;DHT22;27067;51.554;7.026;2023-05-16T15:42:13;19.50;94.20
41318;DHT22;27067;51.554;7.026;2023-05-16T15:44:39;19.50;94.10
41318;DHT22;27067;51.554;7.026;2023-05-16T15:47:05;19.50;94.10
41318;DHT22;27067;51.554;7.026;2023-05-16T15:49:31;19.50;94.00
41318;DHT22;27067;51.554;7.026;2023-05-16T15:51:56;19.50;94.00
41318;DHT22;27067;51.554;7.026;2023-05-16T15:54:22;19.40;93.90
41318;DHT22;27067;51.554;7.026;2023-05-16T15:56:47;19.50;93.90
41318;DHT22;27067;51.554;7.026;2023-05-16T15:59:13;19.50;93.90